createdAt,value
2019-01-29T00:02:50.065Z,8.67
2019-01-29T00:06:53.562Z,13.37
2019-01-29T00:10:56.989Z,7.40
2019-01-29T00:15:00.411Z,13.27
2019-01-29T00:19:04.303Z,7.83
2019-01-29T00:33:15.090Z,11.10
2019-01-29T00:38:04.114Z,11.57
2019-01-29T00:42:07.544Z,12.23
2019-01-29T00:46:11.012Z,11.20
2019-01-29T00:50:16.084Z,10.70
2019-01-29T00:54:19.513Z,11.47
2019-01-29T00:58:22.942Z,9.97
2019-01-29T01:02:27.163Z,8.77
2019-01-29T01:06:30.594Z,8.70
2019-01-29T01:10:34.003Z,10.17
2019-01-29T01:14:37.431Z,9.10
2019-01-29T01:18:40.930Z,7.50
2019-01-29T01:22:50.707Z,9.70
2019-01-29T01:26:49.495Z,8.80
2019-01-29T01:30:52.918Z,7.77
2019-01-29T01:34:56.338Z,6.83
2019-01-29T01:38:59.767Z,9.33
2019-01-29T01:43:03.195Z,9.00
2019-01-29T01:47:06.615Z,6.13
2019-01-29T01:51:10.032Z,10.20
2019-01-29T01:55:17.899Z,9.77
2019-01-29T01:59:21.361Z,11.30
2019-01-29T02:03:24.787Z,10.90
2019-01-29T02:07:28.199Z,7.60
2019-01-29T02:11:31.619Z,8.13
2019-01-29T02:15:35.129Z,9.70
2019-01-29T02:19:38.568Z,9.27
2019-01-29T02:23:42.014Z,7.97
2019-01-29T02:27:45.436Z,10.67
2019-01-29T02:31:48.932Z,7.17
2019-01-29T02:35:52.372Z,8.10
2019-01-29T02:39:55.881Z,7.33
2019-01-29T02:43:59.294Z,8.30
2019-01-29T02:48:02.732Z,10.17
2019-01-29T02:52:06.248Z,6.73
2019-01-29T02:56:09.740Z,7.17
2019-01-29T03:00:22.117Z,9.37
2019-01-29T03:04:25.532Z,6.47
2019-01-29T03:08:28.964Z,9.13
2019-01-29T03:12:32.400Z,8.50
2019-01-29T03:16:35.824Z,8.77
2019-01-29T03:20:39.325Z,7.30
2019-01-29T03:24:42.745Z,5.10
2019-01-29T03:28:46.175Z,6.73
2019-01-29T03:32:49.674Z,6.23
2019-01-29T03:36:53.452Z,7.97
2019-01-29T03:40:56.874Z,5.77
2019-01-29T03:45:00.298Z,6.70
2019-01-29T03:49:03.860Z,9.83
2019-01-29T03:53:07.279Z,8.63
2019-01-29T03:57:10.694Z,6.93
2019-01-29T04:01:14.119Z,7.30
2019-01-29T04:05:17.535Z,6.27
2019-01-29T04:09:20.956Z,7.07
2019-01-29T04:13:24.391Z,5.57
2019-01-29T04:17:27.815Z,6.07
2019-01-29T04:21:31.221Z,6.03
2019-01-29T04:25:34.660Z,20.40
2019-01-29T04:29:38.072Z,6.40
2019-01-29T04:33:41.495Z,4.87
2019-01-29T04:37:44.920Z,7.20
2019-01-29T04:41:48.339Z,5.87
2019-01-29T04:45:51.762Z,8.17
2019-01-29T04:49:55.194Z,5.27
2019-01-29T04:53:58.619Z,7.40
2019-01-29T04:58:02.044Z,8.10
2019-01-29T05:02:05.460Z,5.23
2019-01-29T05:06:08.872Z,9.47
2019-01-29T05:10:14.843Z,7.33
2019-01-29T05:14:18.308Z,8.60
2019-01-29T05:18:21.738Z,5.43
2019-01-29T05:22:25.146Z,5.03
2019-01-29T05:26:28.575Z,5.57
2019-01-29T05:30:31.995Z,7.03
2019-01-29T05:34:35.418Z,5.90
2019-01-29T05:38:38.856Z,5.77
2019-01-29T05:42:42.278Z,7.47
2019-01-29T05:46:45.690Z,5.37
2019-01-29T05:50:50.577Z,5.57
2019-01-29T05:54:54.089Z,5.33
2019-01-29T05:58:57.478Z,4.47
2019-01-29T06:03:00.904Z,5.60
2019-01-29T06:07:04.421Z,5.43
2019-01-29T06:11:07.838Z,9.27
2019-01-29T06:15:14.498Z,6.70
2019-01-29T06:19:17.915Z,6.00
2019-01-29T06:23:21.326Z,7.17
2019-01-29T06:27:24.754Z,6.70
2019-01-29T06:31:28.185Z,6.57
2019-01-29T06:35:31.612Z,7.23
2019-01-29T06:39:35.038Z,6.80
2019-01-29T06:43:38.475Z,8.23
2019-01-29T06:47:41.890Z,12.63
2019-01-29T06:51:45.316Z,5.87
2019-01-29T06:55:48.756Z,7.90
2019-01-29T06:59:52.187Z,7.40
2019-01-29T07:03:55.667Z,7.70
2019-01-29T07:07:59.197Z,6.80
2019-01-29T07:12:02.686Z,8.63
2019-01-29T07:16:13.326Z,8.23
2019-01-29T07:20:16.820Z,7.47
2019-01-29T07:24:20.244Z,8.77
2019-01-29T07:28:23.676Z,8.80
2019-01-29T07:32:27.094Z,10.93
2019-01-29T07:36:30.530Z,8.33
2019-01-29T07:40:34.017Z,9.50
2019-01-29T07:44:37.470Z,8.77
2019-01-29T07:48:40.891Z,8.93
2019-01-29T07:52:44.329Z,11.90
2019-01-29T07:56:47.819Z,14.90
2019-01-29T08:00:51.215Z,6.27
2019-01-29T08:04:54.643Z,11.73
2019-01-29T08:08:58.112Z,9.33
2019-01-29T08:13:01.598Z,9.50
2019-01-29T08:17:05.215Z,9.27
2019-01-29T08:21:08.723Z,10.27
2019-01-29T08:25:12.286Z,9.03
2019-01-29T08:29:15.783Z,7.70
2019-01-29T08:33:19.196Z,9.33
2019-01-29T08:37:22.615Z,10.80
2019-01-29T08:41:26.043Z,10.07
2019-01-29T08:45:29.489Z,6.77
2019-01-29T08:49:32.908Z,9.37
2019-01-29T08:53:36.367Z,9.50
2019-01-29T08:57:39.766Z,10.63
2019-01-29T09:01:43.203Z,10.93
2019-01-29T09:05:46.632Z,9.93
2019-01-29T09:09:50.071Z,7.13
2019-01-29T09:13:53.485Z,9.67
2019-01-29T09:17:56.945Z,10.40
2019-01-29T09:22:00.427Z,7.53
2019-01-29T09:26:03.878Z,9.70
2019-01-29T09:30:18.606Z,12.87
2019-01-29T09:34:22.160Z,9.87
2019-01-29T09:38:25.609Z,8.30
2019-01-29T09:42:29.243Z,8.33
2019-01-29T09:46:32.765Z,8.83
2019-01-29T09:50:36.301Z,7.73
2019-01-29T09:54:39.790Z,9.20
2019-01-29T09:58:43.202Z,7.23
2019-01-29T10:02:46.728Z,6.07
2019-01-29T10:06:50.156Z,9.13
2019-01-29T10:10:53.584Z,8.83
2019-01-29T10:14:56.999Z,8.13
2019-01-29T10:19:00.423Z,6.70
2019-01-29T10:23:03.851Z,6.93
2019-01-29T10:27:07.279Z,5.73
2019-01-29T10:31:10.739Z,9.40
2019-01-29T10:35:19.728Z,7.87
2019-01-29T10:39:23.160Z,7.07
2019-01-29T10:43:26.574Z,7.50
2019-01-29T10:47:30.013Z,10.50
2019-01-29T10:51:33.432Z,7.43
2019-01-29T10:55:36.863Z,7.47
2019-01-29T10:59:40.327Z,8.83
2019-01-29T11:03:43.832Z,9.63
2019-01-29T11:07:47.242Z,9.43
2019-01-29T11:11:50.651Z,6.93
2019-01-29T11:15:54.087Z,14.20
2019-01-29T11:19:57.512Z,9.47
2019-01-29T11:24:00.935Z,10.97
2019-01-29T11:28:04.787Z,8.83
2019-01-29T11:32:08.205Z,8.73
2019-01-29T11:36:11.722Z,7.87
2019-01-29T11:40:26.969Z,8.90
2019-01-29T11:44:30.424Z,9.50
2019-01-29T11:48:33.915Z,12.53
2019-01-29T11:52:37.408Z,10.03
2019-01-29T11:56:40.835Z,12.23
2019-01-29T12:00:48.899Z,9.97
2019-01-29T12:04:52.323Z,11.13
2019-01-29T12:08:55.896Z,10.20
2019-01-29T12:12:59.332Z,7.77
2019-01-29T12:17:02.880Z,10.83
2019-01-29T12:21:06.321Z,9.63
2019-01-29T12:25:10.221Z,10.03
2019-01-29T12:29:13.622Z,9.43
2019-01-29T12:33:17.628Z,10.37
2019-01-29T12:37:21.058Z,8.43
2019-01-29T12:41:24.536Z,10.53
2019-01-29T12:45:28.128Z,7.60
2019-01-29T12:49:31.628Z,11.77
2019-01-29T12:53:35.168Z,8.90
2019-01-29T12:57:38.600Z,10.80
2019-01-29T13:01:42.027Z,27.17
2019-01-29T13:05:45.454Z,11.03
2019-01-29T13:09:48.862Z,13.30
2019-01-29T13:13:52.286Z,8.53
2019-01-29T13:17:56.397Z,11.87
2019-01-29T13:21:59.827Z,11.97
2019-01-29T13:26:03.279Z,10.17
2019-01-29T13:30:12.615Z,10.40
2019-01-29T13:34:16.060Z,7.93
2019-01-29T13:38:20.051Z,9.93
2019-01-29T13:42:23.482Z,9.40
2019-01-29T13:46:26.916Z,10.00
2019-01-29T13:50:39.127Z,9.30
2019-01-29T13:54:42.559Z,7.47
2019-01-29T13:58:45.979Z,6.83
2019-01-29T14:02:49.678Z,7.53
2019-01-29T14:06:53.279Z,7.63
2019-01-29T14:10:56.765Z,7.60
2019-01-29T14:15:00.271Z,10.40
2019-01-29T14:19:03.709Z,8.93
2019-01-29T14:23:08.979Z,33.00
2019-01-29T14:27:12.433Z,9.73
2019-01-29T14:31:15.971Z,9.40
2019-01-29T14:35:19.483Z,10.80
2019-01-29T14:39:26.188Z,11.77
2019-01-29T14:43:35.795Z,10.53
2019-01-29T14:47:39.313Z,11.80
2019-01-29T14:51:42.736Z,7.73
2019-01-29T14:55:46.235Z,7.77
2019-01-29T14:59:49.655Z,8.13
2019-01-29T15:03:53.128Z,9.63
2019-01-29T15:07:56.582Z,7.63
2019-01-29T15:12:00.090Z,7.73
2019-01-29T15:16:05.799Z,9.60
2019-01-29T15:20:11.810Z,9.97
2019-01-29T15:24:15.325Z,7.77
2019-01-29T15:28:18.915Z,10.93
2019-01-29T15:32:22.348Z,10.00
2019-01-29T15:36:25.852Z,11.07
2019-01-29T15:40:29.293Z,15.50
2019-01-29T15:44:32.752Z,12.30
2019-01-29T15:48:36.167Z,7.53
2019-01-29T15:52:48.299Z,9.17
2019-01-29T15:56:44.822Z,11.40
2019-01-29T16:00:48.259Z,10.73
2019-01-29T16:04:51.695Z,11.43
2019-01-29T16:08:55.151Z,7.37
2019-01-29T16:12:58.578Z,12.00
2019-01-29T16:17:02.003Z,9.30
2019-01-29T16:21:05.435Z,14.47
2019-01-29T16:25:11.652Z,9.80
2019-01-29T16:29:15.083Z,12.43
2019-01-29T16:33:18.588Z,10.63
2019-01-29T16:37:22.020Z,11.50
2019-01-29T16:41:25.453Z,9.93
2019-01-29T16:45:31.308Z,13.10
2019-01-29T16:49:34.743Z,15.50
2019-01-29T16:53:38.202Z,15.43
2019-01-29T16:57:41.637Z,14.80
2019-01-29T17:01:45.072Z,16.67
2019-01-29T17:05:48.483Z,9.10
2019-01-29T17:09:51.920Z,15.00
2019-01-29T17:13:55.364Z,14.80
2019-01-29T17:18:00.208Z,13.20
2019-01-29T17:22:03.634Z,16.37
2019-01-29T17:26:07.055Z,17.30
2019-01-29T17:30:16.106Z,14.70
2019-01-29T17:34:19.522Z,11.60
2019-01-29T17:38:22.960Z,15.87
2019-01-29T17:42:26.388Z,22.67
2019-01-29T17:46:31.300Z,19.27
2019-01-29T17:50:37.651Z,21.87
2019-01-29T17:54:41.104Z,15.93
2019-01-29T17:58:44.547Z,19.50
2019-01-29T18:02:48.062Z,19.37
2019-01-29T18:06:51.493Z,17.80
2019-01-29T18:10:54.955Z,20.20
2019-01-29T18:14:58.387Z,24.63
2019-01-29T18:19:01.818Z,20.33
2019-01-29T18:23:06.000Z,21.03
2019-01-29T18:27:09.623Z,21.70
2019-01-29T18:31:13.054Z,20.13
2019-01-29T18:35:16.591Z,19.23
2019-01-29T18:39:20.022Z,25.40
2019-01-29T18:43:23.515Z,22.97
2019-01-29T18:47:26.950Z,23.30
2019-01-29T18:51:30.375Z,28.47
2019-01-29T18:55:33.811Z,25.80
2019-01-29T18:59:37.246Z,23.37
2019-01-29T19:03:40.661Z,26.70
2019-01-29T19:07:44.917Z,25.70
2019-01-29T19:11:48.479Z,53.40
2019-01-29T19:15:52.017Z,22.63
2019-01-29T19:19:55.610Z,25.30
2019-01-29T19:23:59.060Z,24.57
2019-01-29T19:28:02.487Z,24.50
2019-01-29T19:32:05.928Z,24.83
2019-01-29T19:36:10.796Z,20.17
2019-01-29T19:40:16.351Z,26.33
2019-01-29T19:44:19.783Z,27.67
2019-01-29T19:48:23.220Z,27.03
2019-01-29T19:52:26.912Z,25.43
2019-01-29T19:56:30.574Z,22.00
2019-01-29T20:00:36.940Z,25.73
2019-01-29T20:04:40.381Z,28.90
2019-01-29T20:08:43.814Z,21.73
2019-01-29T20:12:47.246Z,24.23
2019-01-29T20:16:50.685Z,24.30
2019-01-29T20:20:54.112Z,25.03
2019-01-29T20:24:57.548Z,24.97
2019-01-29T20:29:00.979Z,20.40
2019-01-29T20:33:05.322Z,22.70
2019-01-29T20:37:09.167Z,21.10
2019-01-29T20:41:12.574Z,18.17
2019-01-29T20:45:16.456Z,19.77
2019-01-29T20:49:19.891Z,18.03
2019-01-29T20:53:24.168Z,19.13
2019-01-29T20:57:27.596Z,21.33
2019-01-29T21:01:31.027Z,19.43
2019-01-29T21:05:34.998Z,21.03
2019-01-29T21:09:39.439Z,22.23
2019-01-29T21:13:42.873Z,20.53
2019-01-29T21:17:46.291Z,21.57
2019-01-29T21:21:49.716Z,25.50
2019-01-29T21:25:53.151Z,27.90
2019-01-29T21:29:56.596Z,21.30
2019-01-29T21:34:00.031Z,19.47
2019-01-29T21:38:04.138Z,20.27
2019-01-29T21:42:07.635Z,21.13
2019-01-29T21:46:11.072Z,25.07
2019-01-29T21:50:20.495Z,26.17
2019-01-29T21:54:23.910Z,24.37
2019-01-29T21:58:27.343Z,20.73
2019-01-29T22:02:30.780Z,18.30
2019-01-29T22:06:34.240Z,18.43
2019-01-29T22:10:37.864Z,17.07
2019-01-29T22:14:41.298Z,16.00
2019-01-29T22:18:44.719Z,15.20
2019-01-29T22:22:48.221Z,15.47
2019-01-29T22:26:51.647Z,16.23
2019-01-29T22:30:55.063Z,15.87
2019-01-29T22:34:58.498Z,16.67
2019-01-29T22:39:01.924Z,19.27
2019-01-29T22:43:05.785Z,18.07
2019-01-29T22:47:09.216Z,19.13
2019-01-29T22:51:12.647Z,20.40
2019-01-29T22:55:16.171Z,20.43
2019-01-29T22:59:19.622Z,21.13
2019-01-29T23:03:32.265Z,21.17
2019-01-29T23:07:35.695Z,17.17
2019-01-29T23:11:39.112Z,16.77
2019-01-29T23:15:42.691Z,17.00
2019-01-29T23:19:46.121Z,23.70
2019-01-29T23:23:49.550Z,17.73
2019-01-29T23:27:52.975Z,21.43
2019-01-29T23:31:56.410Z,17.70
2019-01-29T23:35:59.831Z,17.07
2019-01-29T23:40:04.791Z,14.73
2019-01-29T23:44:08.699Z,20.10
2019-01-29T23:48:12.210Z,22.07
2019-01-29T23:52:15.619Z,15.40
2019-01-29T23:56:19.067Z,17.23
